sensor_id;sensor_type;location;lat;lon;timestamp;P1;durP1;ratioP1;P2;durP2;ratioP2
58784;SDS011;44557;51.862;19.378;2022-12-04T00:00:39;60.40;;;30.70;;
58784;SDS011;44557;51.862;19.378;2022-12-04T00:01:52;64.50;;;31.60;;
58784;SDS011;44557;51.862;19.378;2022-12-04T00:02:54;60.70;;;29.50;;
58784;SDS011;44557;51.862;19.378;2022-12-04T00:03:59;62.80;;;31.10;;
58784;SDS011;44557;51.862;19.378;2022-12-04T00:05:02;56.90;;;28.90;;
58784;SDS011;44557;51.862;19.378;2022-12-04T00:06:06;61.30;;;30.50;;
58784;SDS011;44557;51.862;19.378;2022-12-04T00:07:10;60.90;;;31.30;;
58784;SDS011;44557;51.862;19.378;2022-12-04T00:08:12;61.30;;;30.70;;
58784;SDS011;44557;51.862;19.378;2022-12-04T00:09:13;59.10;;;30.60;;
58784;SDS011;44557;51.862;19.378;2022-12-04T00:10:15;57.90;;;32.40;;
58784;SDS011;44557;51.862;19.378;2022-12-04T00:11:18;60.90;;;30.40;;
58784;SDS011;44557;51.862;19.378;2022-12-04T00:12:25;63.00;;;32.00;;
58784;SDS011;44557;51.862;19.378;2022-12-04T00:13:27;58.20;;;29.50;;
58784;SDS011;44557;51.862;19.378;2022-12-04T00:14:28;65.30;;;33.10;;
58784;SDS011;44557;51.862;19.378;2022-12-04T00:15:30;59.00;;;30.10;;
58784;SDS011;44557;51.862;19.378;2022-12-04T00:16:32;58.10;;;28.10;;
58784;SDS011;44557;51.862;19.378;2022-12-04T00:17:34;55.90;;;27.60;;
58784;SDS011;44557;51.862;19.378;2022-12-04T00:18:36;60.70;;;30.70;;
58784;SDS011;44557;51.862;19.378;2022-12-04T00:19:38;60.20;;;28.30;;
58784;SDS011;44557;51.862;19.378;2022-12-04T00:20:39;55.60;;;28.70;;
58784;SDS011;44557;51.862;19.378;2022-12-04T00:21:41;54.00;;;27.00;;
58784;SDS011;44557;51.862;19.378;2022-12-04T00:22:43;58.60;;;30.70;;
58784;SDS011;44557;51.862;19.378;2022-12-04T00:23:45;58.30;;;29.60;;
58784;SDS011;44557;51.862;19.378;2022-12-04T00:24:47;55.00;;;29.00;;
58784;SDS011;44557;51.862;19.378;2022-12-04T00:25:49;54.40;;;27.00;;
58784;SDS011;44557;51.862;19.378;2022-12-04T00:26:51;55.80;;;27.30;;
58784;SDS011;44557;51.862;19.378;2022-12-04T00:27:53;52.30;;;27.30;;
58784;SDS011;44557;51.862;19.378;2022-12-04T00:28:54;61.60;;;29.00;;
58784;SDS011;44557;51.862;19.378;2022-12-04T00:29:56;53.50;;;27.30;;
58784;SDS011;44557;51.862;19.378;2022-12-04T00:30:58;58.60;;;29.40;;
58784;SDS011;44557;51.862;19.378;2022-12-04T00:31:59;56.70;;;28.20;;
58784;SDS011;44557;51.862;19.378;2022-12-04T00:33:01;53.50;;;27.90;;
58784;SDS011;44557;51.862;19.378;2022-12-04T00:34:03;58.20;;;28.60;;
58784;SDS011;44557;51.862;19.378;2022-12-04T00:35:05;55.90;;;28.60;;
58784;SDS011;44557;51.862;19.378;2022-12-04T00:36:08;51.30;;;27.70;;
58784;SDS011;44557;51.862;19.378;2022-12-04T00:37:11;48.30;;;25.00;;
58784;SDS011;44557;51.862;19.378;2022-12-04T00:38:13;48.80;;;26.60;;
58784;SDS011;44557;51.862;19.378;2022-12-04T00:39:15;49.90;;;25.60;;
58784;SDS011;44557;51.862;19.378;2022-12-04T00:40:16;53.50;;;26.20;;
58784;SDS011;44557;51.862;19.378;2022-12-04T00:41:19;54.40;;;26.70;;
58784;SDS011;44557;51.862;19.378;2022-12-04T00:42:23;52.70;;;27.70;;
58784;SDS011;44557;51.862;19.378;2022-12-04T00:43:25;45.20;;;23.20;;
58784;SDS011;44557;51.862;19.378;2022-12-04T00:44:27;52.60;;;26.40;;
58784;SDS011;44557;51.862;19.378;2022-12-04T00:45:29;47.10;;;25.20;;
58784;SDS011;44557;51.862;19.378;2022-12-04T00:46:30;50.20;;;25.40;;
58784;SDS011;44557;51.862;19.378;2022-12-04T00:47:32;52.90;;;26.00;;
58784;SDS011;44557;51.862;19.378;2022-12-04T00:48:34;50.90;;;26.80;;
58784;SDS011;44557;51.862;19.378;2022-12-04T00:49:36;47.00;;;25.20;;
58784;SDS011;44557;51.862;19.378;2022-12-04T00:50:38;48.50;;;25.10;;
58784;SDS011;44557;51.862;19.378;2022-12-04T00:51:40;44.90;;;23.60;;
58784;SDS011;44557;51.862;19.378;2022-12-04T00:52:42;51.30;;;25.90;;
58784;SDS011;44557;51.862;19.378;2022-12-04T00:53:43;49.90;;;26.40;;
58784;SDS011;44557;51.862;19.378;2022-12-04T00:54:46;43.00;;;23.60;;
58784;SDS011;44557;51.862;19.378;2022-12-04T00:55:47;55.20;;;26.60;;
58784;SDS011;44557;51.862;19.378;2022-12-04T00:56:49;51.10;;;28.30;;
58784;SDS011;44557;51.862;19.378;2022-12-04T00:57:51;49.90;;;25.40;;
58784;SDS011;44557;51.862;19.378;2022-12-04T00:58:53;43.90;;;23.00;;
58784;SDS011;44557;51.862;19.378;2022-12-04T00:59:56;47.50;;;24.40;;
58784;SDS011;44557;51.862;19.378;2022-12-04T01:01:05;46.10;;;24.20;;
58784;SDS011;44557;51.862;19.378;2022-12-04T01:02:08;45.70;;;23.00;;
58784;SDS011;44557;51.862;19.378;2022-12-04T01:03:10;43.10;;;24.60;;
58784;SDS011;44557;51.862;19.378;2022-12-04T01:04:12;40.30;;;22.20;;
58784;SDS011;44557;51.862;19.378;2022-12-04T01:05:13;47.30;;;24.00;;
58784;SDS011;44557;51.862;19.378;2022-12-04T01:06:19;43.10;;;23.00;;
58784;SDS011;44557;51.862;19.378;2022-12-04T01:07:26;42.40;;;21.70;;
58784;SDS011;44557;51.862;19.378;2022-12-04T01:08:28;47.80;;;24.10;;
58784;SDS011;44557;51.862;19.378;2022-12-04T01:09:29;46.80;;;24.10;;
58784;SDS011;44557;51.862;19.378;2022-12-04T01:10:32;42.50;;;21.50;;
58784;SDS011;44557;51.862;19.378;2022-12-04T01:11:34;43.90;;;23.60;;
58784;SDS011;44557;51.862;19.378;2022-12-04T01:12:36;46.80;;;23.90;;
58784;SDS011;44557;51.862;19.378;2022-12-04T01:13:38;40.30;;;20.70;;
58784;SDS011;44557;51.862;19.378;2022-12-04T01:14:39;43.80;;;21.10;;
58784;SDS011;44557;51.862;19.378;2022-12-04T01:15:41;43.60;;;22.90;;
58784;SDS011;44557;51.862;19.378;2022-12-04T01:16:47;48.50;;;23.90;;
58784;SDS011;44557;51.862;19.378;2022-12-04T01:17:49;43.90;;;23.50;;
58784;SDS011;44557;51.862;19.378;2022-12-04T01:18:50;43.70;;;23.30;;
58784;SDS011;44557;51.862;19.378;2022-12-04T01:19:52;41.10;;;22.50;;
58784;SDS011;44557;51.862;19.378;2022-12-04T01:20:54;42.70;;;22.90;;
58784;SDS011;44557;51.862;19.378;2022-12-04T01:21:56;46.00;;;23.40;;
58784;SDS011;44557;51.862;19.378;2022-12-04T01:22:57;40.60;;;21.70;;
58784;SDS011;44557;51.862;19.378;2022-12-04T01:23:59;42.00;;;22.70;;
58784;SDS011;44557;51.862;19.378;2022-12-04T01:25:00;40.30;;;22.30;;
58784;SDS011;44557;51.862;19.378;2022-12-04T01:26:02;45.10;;;23.10;;
58784;SDS011;44557;51.862;19.378;2022-12-04T01:27:04;41.00;;;21.90;;
58784;SDS011;44557;51.862;19.378;2022-12-04T01:28:05;41.60;;;22.10;;
58784;SDS011;44557;51.862;19.378;2022-12-04T01:29:07;39.60;;;22.30;;
58784;SDS011;44557;51.862;19.378;2022-12-04T01:30:08;38.30;;;20.10;;
58784;SDS011;44557;51.862;19.378;2022-12-04T01:31:11;38.80;;;19.80;;
58784;SDS011;44557;51.862;19.378;2022-12-04T01:32:15;43.70;;;21.80;;
58784;SDS011;44557;51.862;19.378;2022-12-04T01:33:17;39.20;;;20.70;;
58784;SDS011;44557;51.862;19.378;2022-12-04T01:34:18;41.30;;;22.30;;
58784;SDS011;44557;51.862;19.378;2022-12-04T01:35:20;42.50;;;21.60;;
58784;SDS011;44557;51.862;19.378;2022-12-04T01:36:22;38.70;;;20.30;;
58784;SDS011;44557;51.862;19.378;2022-12-04T01:37:28;38.50;;;20.70;;
58784;SDS011;44557;51.862;19.378;2022-12-04T01:38:32;36.00;;;18.90;;
58784;SDS011;44557;51.862;19.378;2022-12-04T01:39:34;37.60;;;21.20;;
58784;SDS011;44557;51.862;19.378;2022-12-04T01:40:42;40.30;;;22.10;;
58784;SDS011;44557;51.862;19.378;2022-12-04T01:41:44;37.60;;;21.00;;
58784;SDS011;44557;51.862;19.378;2022-12-04T01:42:46;39.00;;;20.50;;
58784;SDS011;44557;51.862;19.378;2022-12-04T01:45:41;35.80;;;20.60;;
58784;SDS011;44557;51.862;19.378;2022-12-04T01:48:22;34.80;;;19.00;;
58784;SDS011;44557;51.862;19.378;2022-12-04T01:49:42;37.30;;;19.50;;
58784;SDS011;44557;51.862;19.378;2022-12-04T01:50:46;40.00;;;20.60;;
58784;SDS011;44557;51.862;19.378;2022-12-04T01:51:52;38.00;;;20.00;;
58784;SDS011;44557;51.862;19.378;2022-12-04T01:52:58;40.10;;;20.50;;
58784;SDS011;44557;51.862;19.378;2022-12-04T01:54:01;37.90;;;20.40;;
58784;SDS011;44557;51.862;19.378;2022-12-04T01:55:07;38.80;;;20.30;;
58784;SDS011;44557;51.862;19.378;2022-12-04T01:56:09;37.00;;;20.30;;
58784;SDS011;44557;51.862;19.378;2022-12-04T01:57:21;42.60;;;22.10;;
58784;SDS011;44557;51.862;19.378;2022-12-04T01:58:27;38.40;;;20.40;;
58784;SDS011;44557;51.862;19.378;2022-12-04T01:59:34;38.50;;;19.20;;
58784;SDS011;44557;51.862;19.378;2022-12-04T02:00:40;35.00;;;18.70;;
58784;SDS011;44557;51.862;19.378;2022-12-04T02:01:45;39.70;;;21.20;;
58784;SDS011;44557;51.862;19.378;2022-12-04T02:02:55;36.80;;;19.60;;
58784;SDS011;44557;51.862;19.378;2022-12-04T02:03:58;37.60;;;20.60;;
58784;SDS011;44557;51.862;19.378;2022-12-04T02:05:02;36.80;;;19.50;;
58784;SDS011;44557;51.862;19.378;2022-12-04T02:06:06;38.20;;;20.90;;
58784;SDS011;44557;51.862;19.378;2022-12-04T02:07:08;37.90;;;20.20;;
58784;SDS011;44557;51.862;19.378;2022-12-04T02:08:11;38.80;;;20.60;;
58784;SDS011;44557;51.862;19.378;2022-12-04T02:09:12;35.70;;;18.90;;
58784;SDS011;44557;51.862;19.378;2022-12-04T02:10:14;36.60;;;19.60;;
58784;SDS011;44557;51.862;19.378;2022-12-04T02:11:21;36.20;;;19.60;;
58784;SDS011;44557;51.862;19.378;2022-12-04T02:16:45;36.50;;;18.20;;
58784;SDS011;44557;51.862;19.378;2022-12-04T02:18:04;35.80;;;19.00;;
58784;SDS011;44557;51.862;19.378;2022-12-04T02:22:09;35.20;;;19.90;;
58784;SDS011;44557;51.862;19.378;2022-12-04T02:23:33;37.50;;;19.90;;
58784;SDS011;44557;51.862;19.378;2022-12-04T02:26:52;37.90;;;18.60;;
58784;SDS011;44557;51.862;19.378;2022-12-04T02:29:37;37.60;;;19.10;;
58784;SDS011;44557;51.862;19.378;2022-12-04T02:30:55;35.30;;;19.20;;
58784;SDS011;44557;51.862;19.378;2022-12-04T02:32:20;37.80;;;21.10;;
58784;SDS011;44557;51.862;19.378;2022-12-04T02:33:33;36.70;;;18.90;;
58784;SDS011;44557;51.862;19.378;2022-12-04T02:34:54;37.70;;;20.70;;
58784;SDS011;44557;51.862;19.378;2022-12-04T02:36:24;37.90;;;19.40;;
58784;SDS011;44557;51.862;19.378;2022-12-04T02:37:33;38.30;;;19.70;;
58784;SDS011;44557;51.862;19.378;2022-12-04T02:38:43;35.90;;;19.60;;
58784;SDS011;44557;51.862;19.378;2022-12-04T02:39:58;37.20;;;18.60;;
58784;SDS011;44557;51.862;19.378;2022-12-04T02:41:07;34.40;;;19.00;;
58784;SDS011;44557;51.862;19.378;2022-12-04T02:42:20;38.00;;;20.20;;
58784;SDS011;44557;51.862;19.378;2022-12-04T02:43:42;37.40;;;19.80;;
58784;SDS011;44557;51.862;19.378;2022-12-04T02:44:57;38.10;;;20.50;;
58784;SDS011;44557;51.862;19.378;2022-12-04T02:46:05;37.60;;;20.20;;
58784;SDS011;44557;51.862;19.378;2022-12-04T02:47:12;37.10;;;19.50;;
58784;SDS011;44557;51.862;19.378;2022-12-04T02:48:18;38.60;;;21.10;;
58784;SDS011;44557;51.862;19.378;2022-12-04T02:49:23;36.70;;;19.80;;
58784;SDS011;44557;51.862;19.378;2022-12-04T02:50:29;32.60;;;18.60;;
58784;SDS011;44557;51.862;19.378;2022-12-04T02:51:35;36.00;;;20.30;;
58784;SDS011;44557;51.862;19.378;2022-12-04T02:52:41;37.60;;;20.90;;
58784;SDS011;44557;51.862;19.378;2022-12-04T02:53:49;36.20;;;20.30;;
58784;SDS011;44557;51.862;19.378;2022-12-04T02:54:55;37.00;;;20.00;;
58784;SDS011;44557;51.862;19.378;2022-12-04T02:56:01;37.70;;;19.60;;
58784;SDS011;44557;51.862;19.378;2022-12-04T02:57:15;37.10;;;19.80;;
58784;SDS011;44557;51.862;19.378;2022-12-04T02:58:30;36.00;;;19.20;;
58784;SDS011;44557;51.862;19.378;2022-12-04T02:59:38;39.50;;;20.50;;
58784;SDS011;44557;51.862;19.378;2022-12-04T03:00:43;35.80;;;19.70;;
58784;SDS011;44557;51.862;19.378;2022-12-04T03:01:48;37.40;;;19.60;;
58784;SDS011;44557;51.862;19.378;2022-12-04T03:02:58;40.10;;;21.40;;
58784;SDS011;44557;51.862;19.378;2022-12-04T03:04:16;38.00;;;17.60;;
58784;SDS011;44557;51.862;19.378;2022-12-04T03:05:50;37.40;;;19.70;;
58784;SDS011;44557;51.862;19.378;2022-12-04T03:06:59;36.50;;;18.60;;
58784;SDS011;44557;51.862;19.378;2022-12-04T03:08:07;36.60;;;18.20;;
58784;SDS011;44557;51.862;19.378;2022-12-04T03:09:15;38.80;;;19.90;;
58784;SDS011;44557;51.862;19.378;2022-12-04T03:10:29;36.60;;;18.40;;
58784;SDS011;44557;51.862;19.378;2022-12-04T03:11:34;37.90;;;19.40;;
58784;SDS011;44557;51.862;19.378;2022-12-04T03:12:46;37.30;;;18.60;;
58784;SDS011;44557;51.862;19.378;2022-12-04T03:13:54;37.30;;;19.40;;
58784;SDS011;44557;51.862;19.378;2022-12-04T03:15:05;36.50;;;19.40;;
58784;SDS011;44557;51.862;19.378;2022-12-04T03:16:16;38.60;;;20.90;;
58784;SDS011;44557;51.862;19.378;2022-12-04T03:17:28;34.40;;;18.00;;
58784;SDS011;44557;51.862;19.378;2022-12-04T03:18:36;36.90;;;19.90;;
58784;SDS011;44557;51.862;19.378;2022-12-04T03:19:47;37.30;;;19.70;;
58784;SDS011;44557;51.862;19.378;2022-12-04T03:20:56;36.00;;;19.70;;
58784;SDS011;44557;51.862;19.378;2022-12-04T03:23:10;33.60;;;18.60;;
58784;SDS011;44557;51.862;19.378;2022-12-04T03:25:34;35.80;;;19.60;;
58784;SDS011;44557;51.862;19.378;2022-12-04T03:26:44;33.30;;;17.50;;
58784;SDS011;44557;51.862;19.378;2022-12-04T03:28:02;35.60;;;18.80;;
58784;SDS011;44557;51.862;19.378;2022-12-04T03:29:09;35.20;;;17.80;;
58784;SDS011;44557;51.862;19.378;2022-12-04T03:30:16;35.00;;;19.40;;
58784;SDS011;44557;51.862;19.378;2022-12-04T03:31:21;36.50;;;19.20;;
58784;SDS011;44557;51.862;19.378;2022-12-04T03:33:49;35.20;;;19.80;;
58784;SDS011;44557;51.862;19.378;2022-12-04T03:39:19;38.60;;;20.60;;
58784;SDS011;44557;51.862;19.378;2022-12-04T03:46:07;36.30;;;20.10;;
58784;SDS011;44557;51.862;19.378;2022-12-04T03:47:19;38.20;;;20.10;;
58784;SDS011;44557;51.862;19.378;2022-12-04T03:48:28;40.40;;;21.50;;
58784;SDS011;44557;51.862;19.378;2022-12-04T03:52:14;33.70;;;18.30;;
58784;SDS011;44557;51.862;19.378;2022-12-04T03:53:25;41.00;;;20.70;;
58784;SDS011;44557;51.862;19.378;2022-12-04T03:54:34;37.40;;;19.50;;
58784;SDS011;44557;51.862;19.378;2022-12-04T03:55:49;32.20;;;18.60;;
58784;SDS011;44557;51.862;19.378;2022-12-04T03:57:09;34.50;;;19.10;;
58784;SDS011;44557;51.862;19.378;2022-12-04T03:58:17;35.20;;;19.20;;
58784;SDS011;44557;51.862;19.378;2022-12-04T03:59:25;37.60;;;20.40;;
58784;SDS011;44557;51.862;19.378;2022-12-04T04:00:31;37.20;;;19.40;;
58784;SDS011;44557;51.862;19.378;2022-12-04T04:01:34;35.50;;;20.10;;
58784;SDS011;44557;51.862;19.378;2022-12-04T04:02:43;35.40;;;19.80;;
58784;SDS011;44557;51.862;19.378;2022-12-04T04:03:52;36.00;;;19.80;;
58784;SDS011;44557;51.862;19.378;2022-12-04T04:04:57;36.90;;;20.30;;
58784;SDS011;44557;51.862;19.378;2022-12-04T04:06:05;36.00;;;20.40;;
58784;SDS011;44557;51.862;19.378;2022-12-04T04:08:37;33.50;;;18.50;;
58784;SDS011;44557;51.862;19.378;2022-12-04T04:09:43;36.60;;;19.70;;
58784;SDS011;44557;51.862;19.378;2022-12-04T04:10:48;36.70;;;20.10;;
58784;SDS011;44557;51.862;19.378;2022-12-04T04:11:54;34.60;;;20.00;;
58784;SDS011;44557;51.862;19.378;2022-12-04T04:12:57;34.90;;;20.20;;
58784;SDS011;44557;51.862;19.378;2022-12-04T04:14:26;33.80;;;18.90;;
58784;SDS011;44557;51.862;19.378;2022-12-04T04:15:53;33.10;;;18.40;;
58784;SDS011;44557;51.862;19.378;2022-12-04T04:17:16;33.90;;;18.40;;
58784;SDS011;44557;51.862;19.378;2022-12-04T04:18:41;36.00;;;19.00;;
58784;SDS011;44557;51.862;19.378;2022-12-04T04:20:04;38.50;;;19.90;;
58784;SDS011;44557;51.862;19.378;2022-12-04T04:21:29;31.60;;;17.90;;
58784;SDS011;44557;51.862;19.378;2022-12-04T04:22:55;33.90;;;18.60;;
58784;SDS011;44557;51.862;19.378;2022-12-04T04:24:32;33.80;;;18.00;;
58784;SDS011;44557;51.862;19.378;2022-12-04T04:25:41;35.00;;;19.30;;
58784;SDS011;44557;51.862;19.378;2022-12-04T04:26:45;35.60;;;19.10;;
58784;SDS011;44557;51.862;19.378;2022-12-04T04:27:53;39.50;;;19.30;;
58784;SDS011;44557;51.862;19.378;2022-12-04T04:28:57;34.60;;;18.80;;
58784;SDS011;44557;51.862;19.378;2022-12-04T04:29:58;35.30;;;20.00;;
58784;SDS011;44557;51.862;19.378;2022-12-04T04:33:46;37.10;;;19.40;;
58784;SDS011;44557;51.862;19.378;2022-12-04T04:36:26;35.40;;;20.10;;
58784;SDS011;44557;51.862;19.378;2022-12-04T04:37:55;34.80;;;19.40;;
58784;SDS011;44557;51.862;19.378;2022-12-04T04:41:15;33.60;;;19.00;;
58784;SDS011;44557;51.862;19.378;2022-12-04T04:45:56;36.40;;;21.40;;
58784;SDS011;44557;51.862;19.378;2022-12-04T04:47:08;36.90;;;19.80;;
58784;SDS011;44557;51.862;19.378;2022-12-04T04:49:29;39.70;;;20.50;;
58784;SDS011;44557;51.862;19.378;2022-12-04T04:50:34;37.90;;;20.60;;
58784;SDS011;44557;51.862;19.378;2022-12-04T04:51:37;37.30;;;20.30;;
58784;SDS011;44557;51.862;19.378;2022-12-04T04:52:42;41.20;;;22.10;;
58784;SDS011;44557;51.862;19.378;2022-12-04T04:53:50;37.70;;;20.20;;
58784;SDS011;44557;51.862;19.378;2022-12-04T04:54:56;36.20;;;20.10;;
58784;SDS011;44557;51.862;19.378;2022-12-04T04:56:00;41.30;;;21.50;;
58784;SDS011;44557;51.862;19.378;2022-12-04T04:57:02;40.40;;;21.20;;
58784;SDS011;44557;51.862;19.378;2022-12-04T04:58:14;40.80;;;21.00;;
58784;SDS011;44557;51.862;19.378;2022-12-04T04:59:17;37.80;;;20.20;;
58784;SDS011;44557;51.862;19.378;2022-12-04T05:00:20;31.60;;;18.60;;
58784;SDS011;44557;51.862;19.378;2022-12-04T05:01:23;33.20;;;18.50;;
58784;SDS011;44557;51.862;19.378;2022-12-04T05:02:28;35.70;;;19.10;;
58784;SDS011;44557;51.862;19.378;2022-12-04T05:03:30;38.70;;;19.80;;
58784;SDS011;44557;51.862;19.378;2022-12-04T05:04:32;36.10;;;19.80;;
58784;SDS011;44557;51.862;19.378;2022-12-04T05:05:34;34.20;;;17.70;;
58784;SDS011;44557;51.862;19.378;2022-12-04T05:06:35;34.40;;;19.20;;
58784;SDS011;44557;51.862;19.378;2022-12-04T05:07:37;34.40;;;18.70;;
58784;SDS011;44557;51.862;19.378;2022-12-04T05:08:39;33.30;;;18.80;;
58784;SDS011;44557;51.862;19.378;2022-12-04T05:09:40;33.60;;;18.90;;
58784;SDS011;44557;51.862;19.378;2022-12-04T05:10:42;35.60;;;20.60;;
58784;SDS011;44557;51.862;19.378;2022-12-04T05:11:44;36.40;;;18.40;;
58784;SDS011;44557;51.862;19.378;2022-12-04T05:12:45;31.70;;;17.10;;
58784;SDS011;44557;51.862;19.378;2022-12-04T05:13:47;31.80;;;18.40;;
58784;SDS011;44557;51.862;19.378;2022-12-04T05:14:48;30.10;;;17.60;;
58784;SDS011;44557;51.862;19.378;2022-12-04T05:15:57;36.50;;;20.30;;
58784;SDS011;44557;51.862;19.378;2022-12-04T05:17:04;33.90;;;19.10;;
58784;SDS011;44557;51.862;19.378;2022-12-04T05:18:07;38.40;;;19.10;;
58784;SDS011;44557;51.862;19.378;2022-12-04T05:19:09;34.40;;;20.20;;
58784;SDS011;44557;51.862;19.378;2022-12-04T05:20:30;35.20;;;19.20;;
58784;SDS011;44557;51.862;19.378;2022-12-04T05:21:32;30.70;;;17.10;;
58784;SDS011;44557;51.862;19.378;2022-12-04T05:22:35;35.60;;;19.80;;
58784;SDS011;44557;51.862;19.378;2022-12-04T05:23:37;33.30;;;18.80;;
58784;SDS011;44557;51.862;19.378;2022-12-04T05:24:38;33.90;;;18.80;;
58784;SDS011;44557;51.862;19.378;2022-12-04T05:25:40;33.40;;;19.00;;
58784;SDS011;44557;51.862;19.378;2022-12-04T05:26:42;38.80;;;19.10;;
58784;SDS011;44557;51.862;19.378;2022-12-04T05:27:43;34.00;;;19.60;;
58784;SDS011;44557;51.862;19.378;2022-12-04T05:28:45;35.20;;;18.90;;
58784;SDS011;44557;51.862;19.378;2022-12-04T05:29:47;33.10;;;19.80;;
58784;SDS011;44557;51.862;19.378;2022-12-04T05:30:58;34.50;;;19.90;;
58784;SDS011;44557;51.862;19.378;2022-12-04T05:32:02;35.20;;;18.50;;
58784;SDS011;44557;51.862;19.378;2022-12-04T05:33:06;32.10;;;17.50;;
58784;SDS011;44557;51.862;19.378;2022-12-04T05:34:07;32.00;;;17.90;;
58784;SDS011;44557;51.862;19.378;2022-12-04T05:35:09;32.80;;;18.00;;
58784;SDS011;44557;51.862;19.378;2022-12-04T05:36:11;32.00;;;18.80;;
58784;SDS011;44557;51.862;19.378;2022-12-04T05:37:13;33.00;;;17.90;;
58784;SDS011;44557;51.862;19.378;2022-12-04T05:38:15;36.60;;;19.90;;
58784;SDS011;44557;51.862;19.378;2022-12-04T05:39:16;33.80;;;18.50;;
58784;SDS011;44557;51.862;19.378;2022-12-04T05:40:18;33.50;;;17.90;;
58784;SDS011;44557;51.862;19.378;2022-12-04T05:41:20;33.50;;;17.50;;
58784;SDS011;44557;51.862;19.378;2022-12-04T05:42:22;34.60;;;18.50;;
58784;SDS011;44557;51.862;19.378;2022-12-04T05:43:23;35.70;;;19.40;;
58784;SDS011;44557;51.862;19.378;2022-12-04T05:44:25;34.60;;;18.80;;
58784;SDS011;44557;51.862;19.378;2022-12-04T05:45:27;31.30;;;17.60;;
58784;SDS011;44557;51.862;19.378;2022-12-04T05:46:28;31.90;;;17.60;;
58784;SDS011;44557;51.862;19.378;2022-12-04T05:47:30;33.00;;;18.50;;
58784;SDS011;44557;51.862;19.378;2022-12-04T05:48:32;35.10;;;19.00;;
58784;SDS011;44557;51.862;19.378;2022-12-04T05:49:38;38.50;;;19.40;;
58784;SDS011;44557;51.862;19.378;2022-12-04T05:50:40;36.30;;;19.50;;
58784;SDS011;44557;51.862;19.378;2022-12-04T05:51:42;28.70;;;16.00;;
58784;SDS011;44557;51.862;19.378;2022-12-04T05:52:43;35.50;;;18.00;;
58784;SDS011;44557;51.862;19.378;2022-12-04T05:53:45;36.80;;;19.30;;
58784;SDS011;44557;51.862;19.378;2022-12-04T05:54:47;32.60;;;17.60;;
58784;SDS011;44557;51.862;19.378;2022-12-04T05:55:58;37.10;;;19.50;;
58784;SDS011;44557;51.862;19.378;2022-12-04T05:57:01;37.70;;;18.70;;
58784;SDS011;44557;51.862;19.378;2022-12-04T05:58:02;33.30;;;19.00;;
58784;SDS011;44557;51.862;19.378;2022-12-04T05:59:05;33.80;;;18.80;;
58784;SDS011;44557;51.862;19.378;2022-12-04T06:00:07;36.30;;;19.50;;
58784;SDS011;44557;51.862;19.378;2022-12-04T06:01:26;38.80;;;20.30;;
58784;SDS011;44557;51.862;19.378;2022-12-04T06:02:28;31.30;;;16.30;;
58784;SDS011;44557;51.862;19.378;2022-12-04T06:03:30;36.30;;;19.40;;
58784;SDS011;44557;51.862;19.378;2022-12-04T06:04:32;33.70;;;18.60;;
58784;SDS011;44557;51.862;19.378;2022-12-04T06:05:33;34.90;;;18.10;;
58784;SDS011;44557;51.862;19.378;2022-12-04T06:06:35;35.00;;;18.10;;
58784;SDS011;44557;51.862;19.378;2022-12-04T06:07:37;35.60;;;19.70;;
58784;SDS011;44557;51.862;19.378;2022-12-04T06:08:39;37.60;;;20.50;;
58784;SDS011;44557;51.862;19.378;2022-12-04T06:09:41;37.00;;;19.30;;
58784;SDS011;44557;51.862;19.378;2022-12-04T06:10:43;38.10;;;19.80;;
58784;SDS011;44557;51.862;19.378;2022-12-04T06:11:45;34.70;;;18.70;;
58784;SDS011;44557;51.862;19.378;2022-12-04T06:12:46;37.00;;;19.90;;
58784;SDS011;44557;51.862;19.378;2022-12-04T06:13:48;35.80;;;19.40;;
58784;SDS011;44557;51.862;19.378;2022-12-04T06:14:50;34.40;;;18.40;;
58784;SDS011;44557;51.862;19.378;2022-12-04T06:15:52;33.50;;;18.90;;
58784;SDS011;44557;51.862;19.378;2022-12-04T06:16:54;37.80;;;19.70;;
58784;SDS011;44557;51.862;19.378;2022-12-04T06:17:56;36.30;;;18.90;;
58784;SDS011;44557;51.862;19.378;2022-12-04T06:18:58;40.00;;;21.20;;
58784;SDS011;44557;51.862;19.378;2022-12-04T06:20:01;38.90;;;20.50;;
58784;SDS011;44557;51.862;19.378;2022-12-04T06:21:04;35.30;;;17.90;;
58784;SDS011;44557;51.862;19.378;2022-12-04T06:22:06;37.90;;;20.90;;
58784;SDS011;44557;51.862;19.378;2022-12-04T06:23:07;34.90;;;19.80;;
58784;SDS011;44557;51.862;19.378;2022-12-04T06:24:13;35.40;;;19.90;;
58784;SDS011;44557;51.862;19.378;2022-12-04T06:25:18;36.80;;;19.70;;
58784;SDS011;44557;51.862;19.378;2022-12-04T06:26:20;33.50;;;18.30;;
58784;SDS011;44557;51.862;19.378;2022-12-04T06:27:23;36.00;;;18.70;;
58784;SDS011;44557;51.862;19.378;2022-12-04T06:28:25;35.90;;;19.40;;
58784;SDS011;44557;51.862;19.378;2022-12-04T06:29:26;36.90;;;19.30;;
58784;SDS011;44557;51.862;19.378;2022-12-04T06:30:28;33.50;;;18.10;;
58784;SDS011;44557;51.862;19.378;2022-12-04T06:31:30;37.90;;;19.80;;
58784;SDS011;44557;51.862;19.378;2022-12-04T06:32:33;36.90;;;18.60;;
58784;SDS011;44557;51.862;19.378;2022-12-04T06:33:35;36.60;;;20.60;;
58784;SDS011;44557;51.862;19.378;2022-12-04T06:34:37;34.50;;;18.60;;
58784;SDS011;44557;51.862;19.378;2022-12-04T06:35:38;36.50;;;19.90;;
58784;SDS011;44557;51.862;19.378;2022-12-04T06:36:40;37.90;;;20.20;;
58784;SDS011;44557;51.862;19.378;2022-12-04T06:37:41;36.20;;;19.60;;
58784;SDS011;44557;51.862;19.378;2022-12-04T06:38:43;36.50;;;20.80;;
58784;SDS011;44557;51.862;19.378;2022-12-04T06:39:45;38.40;;;20.40;;
58784;SDS011;44557;51.862;19.378;2022-12-04T06:40:47;39.60;;;20.00;;
58784;SDS011;44557;51.862;19.378;2022-12-04T06:41:48;39.20;;;21.50;;
58784;SDS011;44557;51.862;19.378;2022-12-04T06:42:50;36.70;;;20.00;;
58784;SDS011;44557;51.862;19.378;2022-12-04T06:43:51;34.70;;;19.60;;
58784;SDS011;44557;51.862;19.378;2022-12-04T06:44:54;34.50;;;18.40;;
58784;SDS011;44557;51.862;19.378;2022-12-04T06:46:02;37.60;;;18.70;;
58784;SDS011;44557;51.862;19.378;2022-12-04T06:47:07;37.10;;;19.00;;
58784;SDS011;44557;51.862;19.378;2022-12-04T06:48:09;35.30;;;18.40;;
58784;SDS011;44557;51.862;19.378;2022-12-04T06:49:10;34.70;;;17.50;;
58784;SDS011;44557;51.862;19.378;2022-12-04T06:50:12;34.20;;;17.90;;
58784;SDS011;44557;51.862;19.378;2022-12-04T06:51:15;37.50;;;18.70;;
58784;SDS011;44557;51.862;19.378;2022-12-04T06:52:19;40.00;;;21.00;;
58784;SDS011;44557;51.862;19.378;2022-12-04T06:53:20;37.00;;;18.40;;
58784;SDS011;44557;51.862;19.378;2022-12-04T06:54:22;34.70;;;17.10;;
58784;SDS011;44557;51.862;19.378;2022-12-04T06:55:24;35.40;;;19.70;;
58784;SDS011;44557;51.862;19.378;2022-12-04T06:56:26;34.50;;;18.60;;
58784;SDS011;44557;51.862;19.378;2022-12-04T06:57:29;30.70;;;17.20;;
58784;SDS011;44557;51.862;19.378;2022-12-04T06:58:31;32.80;;;17.30;;
58784;SDS011;44557;51.862;19.378;2022-12-04T06:59:34;33.30;;;18.60;;
58784;SDS011;44557;51.862;19.378;2022-12-04T07:00:36;33.20;;;18.30;;